Time;durP1;ratioP1;P1;durP2;ratioP2;P2;SDS_P1;SDS_P2;PMS_P1;PMS_P2;Temp;Humidity;BMP_temperature;BMP_pressure;BME280_temperature;BME280_humidity;BME280_pressure;Samples;Min_cycle;Max_cycle;Signal;HPM_P1;HPM_P2
2021/07/20 00:00:19;;;;;;;14.98;13.48;;;589.70;2227.20;;;;;;5095846;28;20473;-55
2021/07/20 00:02:47;;;;;;;17.00;14.82;;;589.70;2227.20;;;;;;5094790;28;20024;-56
2021/07/20 00:05:16;;;;;;;19.35;14.25;;;614.40;2227.20;;;;;;5095332;28;20110;-56
2021/07/20 00:07:42;;;;;;;16.90;13.50;;;589.60;2227.20;;;;;;5094883;28;20385;-56
2021/07/20 00:10:15;;;;;;;18.85;13.02;;;589.60;2227.20;;;;;;5095964;28;20099;-56
2021/07/20 00:12:41;;;;;;;18.38;13.68;;;589.60;2227.20;;;;;;5095837;28;20476;-56
2021/07/20 00:15:10;;;;;;;16.02;14.32;;;589.60;2227.20;;;;;;5095309;28;20073;-56
2021/07/20 00:17:39;;;;;;;15.20;13.52;;;589.60;2227.20;;;;;;5096336;28;20027;-55
2021/07/20 00:20:06;;;;;;;14.73;13.32;;;589.60;2227.20;;;;;;5095044;28;20109;-56
2021/07/20 00:22:32;;;;;;;16.00;14.50;;;589.60;2227.20;;;;;;5096320;28;20047;-56
2021/07/20 00:24:58;;;;;;;15.80;14.10;;;589.60;2252.80;;;;;;5096224;28;20062;-55
2021/07/20 00:27:25;;;;;;;16.02;13.63;;;589.60;2252.80;;;;;;5096008;28;20131;-55
2021/07/20 00:29:51;;;;;;;18.05;14.23;;;589.60;2227.20;;;;;;5096091;28;20032;-56
2021/07/20 00:32:17;;;;;;;16.50;14.05;;;589.60;2252.80;;;;;;5096091;28;20081;-56
2021/07/20 00:34:43;;;;;;;16.13;13.75;;;589.50;2252.80;;;;;;5095334;28;20023;-56
2021/07/20 00:37:09;;;;;;;17.58;13.18;;;589.60;2227.20;;;;;;5096293;28;20020;-55
2021/07/20 00:39:35;;;;;;;15.15;13.52;;;589.50;2227.20;;;;;;5095934;28;20103;-56
2021/07/20 00:42:01;;;;;;;14.25;12.90;;;589.60;2227.20;;;;;;5095931;28;20039;-56
2021/07/20 00:44:27;;;;;;;14.80;13.02;;;589.50;2227.20;;;;;;5096045;28;20016;-56
2021/07/20 00:46:53;;;;;;;14.63;13.15;;;589.50;2227.20;;;;;;5095924;28;20024;-56
2021/07/20 00:49:20;;;;;;;12.43;11.25;;;589.50;2227.20;;;;;;5095820;28;20071;-56
2021/07/20 00:51:47;;;;;;;13.35;11.10;;;589.60;2227.20;;;;;;5095711;28;20032;-56
2021/07/20 00:54:13;;;;;;;15.98;12.15;;;589.50;2227.20;;;;;;5094408;28;20388;-56
2021/07/20 00:56:40;;;;;;;14.15;11.80;;;589.50;2227.20;;;;;;5095584;28;20027;-55
2021/07/20 00:59:06;;;;;;;14.73;11.43;;;589.50;2227.20;;;;;;5095589;28;20042;-56
2021/07/20 01:01:32;;;;;;;13.45;10.95;;;589.40;2227.20;;;;;;5095704;28;20445;-66
2021/07/20 01:03:58;;;;;;;13.13;11.10;;;589.40;2227.20;;;;;;5095385;28;20034;-56
2021/07/20 01:06:24;;;;;;;14.30;11.23;;;589.40;2227.20;;;;;;5095600;28;20032;-56
2021/07/20 01:08:54;;;;;;;11.88;10.68;;;589.40;2227.20;;;;;;5095282;28;20085;-56
2021/07/20 01:11:25;;;;;;;12.90;11.02;;;589.40;2227.20;;;;;;5094960;28;20131;-56
2021/07/20 01:13:51;;;;;;;11.70;10.23;;;589.40;2227.20;;;;;;5095175;28;20024;-55
2021/07/20 01:16:17;;;;;;;14.40;10.52;;;589.30;2227.20;;;;;;5095214;28;20020;-56
2021/07/20 01:18:43;;;;;;;10.63;9.63;;;589.30;2227.20;;;;;;5094918;28;20016;-56
2021/07/20 01:21:10;;;;;;;11.50;10.32;;;589.40;2227.20;;;;;;5095056;28;20019;-56
2021/07/20 01:23:37;;;;;;;12.70;10.25;;;589.40;2227.20;;;;;;5094933;28;20099;-66
2021/07/20 01:26:05;;;;;;;11.20;10.00;;;589.40;2227.20;;;;;;5093659;28;20024;-67
2021/07/20 01:28:32;;;;;;;11.27;10.20;;;589.30;2227.20;;;;;;5094631;28;20181;-67
2021/07/20 01:31:06;;;;;;;11.13;9.82;;;589.30;2227.20;;;;;;5094768;28;20024;-56
2021/07/20 01:33:35;;;;;;;12.70;10.02;;;589.30;2227.20;;;;;;5094896;28;20021;-56
2021/07/20 01:36:04;;;;;;;12.10;9.55;;;589.30;2227.20;;;;;;5094779;28;20024;-56
2021/07/20 01:38:30;;;;;;;13.10;11.02;;;589.30;2227.20;;;;;;5095075;28;20022;-56
2021/07/20 01:41:01;;;;;;;14.32;10.73;;;589.30;2201.60;;;;;;5094726;28;20103;-56
2021/07/20 01:43:29;;;;;;;11.65;10.18;;;589.30;2227.20;;;;;;5095041;28;20047;-56
2021/07/20 01:45:56;;;;;;;11.65;9.85;;;589.30;2227.20;;;;;;5094395;28;20474;-56
2021/07/20 01:48:27;;;;;;;13.05;10.18;;;589.30;2227.20;;;;;;5093345;28;20039;-56
2021/07/20 01:50:54;;;;;;;12.80;11.50;;;589.30;2227.20;;;;;;5094503;28;20052;-56
2021/07/20 01:53:20;;;;;;;11.82;10.18;;;589.30;2227.20;;;;;;5094496;28;20032;-56
2021/07/20 01:55:47;;;;;;;13.40;11.32;;;589.30;2227.20;;;;;;5094505;28;20028;-56
2021/07/20 01:58:13;;;;;;;14.88;11.32;;;589.30;2227.20;;;;;;5094713;28;20488;-55
2021/07/20 02:00:39;;;;;;;13.02;10.25;;;589.30;2227.20;;;;;;5094526;28;20023;-56
2021/07/20 02:08:29;;;;;;;12.02;10.70;;;589.30;2201.60;;;;;;5094665;28;19970;-56
2021/07/20 02:11:10;;;;;;;12.40;11.07;;;589.30;2227.20;;;;;;5094149;28;20024;-58
2021/07/20 02:13:43;;;;;;;13.05;10.57;;;589.30;2201.60;;;;;;5094548;28;20036;-56
2021/07/20 02:16:14;;;;;;;13.05;11.57;;;589.30;2227.20;;;;;;5094382;28;20020;-56
2021/07/20 02:18:46;;;;;;;14.07;10.88;;;589.30;2201.60;;;;;;5094058;28;20028;-67
2021/07/20 02:21:14;;;;;;;11.45;10.25;;;589.30;2227.20;;;;;;5094103;28;20016;-56
2021/07/20 02:23:40;;;;;;;12.63;10.15;;;589.30;2201.60;;;;;;5094008;28;20149;-55
2021/07/20 02:26:07;;;;;;;12.77;9.55;;;589.20;2227.20;;;;;;5093947;28;20020;-56
2021/07/20 02:28:35;;;;;;;11.40;10.23;;;589.20;2227.20;;;;;;5093788;28;20075;-56
2021/07/20 02:31:04;;;;;;;11.35;10.25;;;589.20;2227.20;;;;;;5093817;28;20024;-56
2021/07/20 02:33:30;;;;;;;12.70;10.73;;;589.20;2227.20;;;;;;5093899;28;20088;-56
2021/07/20 02:35:57;;;;;;;14.57;10.48;;;589.20;2201.60;;;;;;5093826;28;20024;-56
2021/07/20 02:38:24;;;;;;;12.38;9.55;;;589.20;2227.20;;;;;;5093768;28;20049;-56
2021/07/20 02:40:51;;;;;;;13.10;11.07;;;589.20;2201.60;;;;;;5094235;28;20157;-56
2021/07/20 02:43:19;;;;;;;10.25;9.25;;;589.20;2227.20;;;;;;5093710;28;20482;-56
2021/07/20 02:45:46;;;;;;;14.43;10.88;;;589.20;2227.20;;;;;;5093656;28;20037;-56
2021/07/20 02:48:13;;;;;;;11.85;9.82;;;589.20;2227.20;;;;;;5093971;28;20150;-56
2021/07/20 02:50:40;;;;;;;12.25;10.75;;;589.10;2227.20;;;;;;5094124;28;20035;-55
2021/07/20 02:53:07;;;;;;;11.50;10.32;;;589.10;2227.20;;;;;;5093630;28;20024;-56
2021/07/20 02:55:35;;;;;;;14.02;10.60;;;589.10;2227.20;;;;;;5093472;28;20025;-56
2021/07/20 02:58:03;;;;;;;13.70;10.27;;;589.20;2227.20;;;;;;5093393;28;20020;-56
2021/07/20 03:00:30;;;;;;;11.88;10.23;;;589.10;2227.20;;;;;;5093592;28;20016;-56
2021/07/20 03:02:56;;;;;;;12.70;11.35;;;589.10;2227.20;;;;;;5093515;28;20063;-56
2021/07/20 03:05:22;;;;;;;11.85;9.90;;;589.10;2227.20;;;;;;5093490;28;20024;-56
2021/07/20 03:07:58;;;;;;;12.10;9.93;;;589.10;2227.20;;;;;;5093411;28;20120;-56
2021/07/20 03:10:31;;;;;;;11.93;10.18;;;589.10;2227.20;;;;;;5093479;28;20073;-56
2021/07/20 03:13:02;;;;;;;11.70;10.50;;;589.10;2227.20;;;;;;5092158;28;20036;-56
2021/07/20 03:15:30;;;;;;;16.10;11.38;;;589.10;2227.20;;;;;;5093442;28;20244;-56
2021/07/20 03:17:59;;;;;;;14.32;11.45;;;589.10;2227.20;;;;;;5092082;28;20548;-56
2021/07/20 03:20:27;;;;;;;15.95;11.25;;;589.20;2201.60;;;;;;5093553;28;20434;-62
2021/07/20 03:22:54;;;;;;;13.38;10.32;;;589.10;2227.20;;;;;;5093299;28;20027;-55
2021/07/20 03:25:21;;;;;;;12.20;10.85;;;589.10;2227.20;;;;;;5093375;28;20020;-60
2021/07/20 03:27:48;;;;;;;11.30;10.10;;;589.10;2227.20;;;;;;5093025;28;20048;-56
2021/07/20 03:30:14;;;;;;;13.40;10.85;;;589.10;2227.20;;;;;;5093517;28;20017;-67
2021/07/20 03:32:49;;;;;;;12.90;11.18;;;589.10;2227.20;;;;;;5093167;28;20111;-56
2021/07/20 03:35:17;;;;;;;14.10;11.60;;;589.00;2227.20;;;;;;5093264;28;20032;-56
2021/07/20 03:37:44;;;;;;;13.63;11.13;;;589.10;2227.20;;;;;;5093256;28;20099;-67
2021/07/20 03:40:11;;;;;;;15.18;11.63;;;589.10;2227.20;;;;;;5093165;28;20020;-56
2021/07/20 03:42:39;;;;;;;13.02;11.10;;;589.00;2227.20;;;;;;5093177;28;20024;-56
2021/07/20 03:45:07;;;;;;;15.88;11.45;;;589.10;2227.20;;;;;;5093157;28;20456;-56
2021/07/20 03:47:34;;;;;;;12.25;11.02;;;589.10;2227.20;;;;;;5093071;28;20024;-56
2021/07/20 03:50:03;;;;;;;14.80;11.00;;;589.10;2227.20;;;;;;5093384;28;20016;-56
2021/07/20 03:52:32;;;;;;;16.65;11.40;;;589.00;2227.20;;;;;;5093678;28;20036;-55
2021/07/20 03:54:58;;;;;;;14.82;11.43;;;589.10;2227.20;;;;;;5093060;28;20070;-56
2021/07/20 03:57:25;;;;;;;12.93;11.20;;;589.10;2227.20;;;;;;5092977;28;20024;-56
2021/07/20 03:59:58;;;;;;;15.07;11.07;;;589.10;2227.20;;;;;;5093313;28;20464;-56
2021/07/20 04:02:28;;;;;;;12.73;10.43;;;589.10;2227.20;;;;;;5093274;28;20028;-56
2021/07/20 04:04:57;;;;;;;14.68;10.70;;;589.10;2227.20;;;;;;5092974;28;20016;-56
2021/07/20 04:07:24;;;;;;;12.55;10.90;;;589.10;2227.20;;;;;;5093458;28;20055;-56
2021/07/20 04:09:50;;;;;;;12.50;10.95;;;589.10;2227.20;;;;;;5096578;28;20081;-56
2021/07/20 04:12:16;;;;;;;12.95;10.77;;;589.10;2227.20;;;;;;5096505;28;20032;-56
2021/07/20 04:14:45;;;;;;;13.18;11.48;;;589.10;2227.20;;;;;;5096437;28;20020;-56
2021/07/20 04:17:13;;;;;;;14.25;11.43;;;589.10;2227.20;;;;;;5095188;28;20043;-55
2021/07/20 04:19:40;;;;;;;13.43;10.93;;;589.10;2227.20;;;;;;5096388;28;20023;-56
2021/07/20 04:22:07;;;;;;;16.05;11.38;;;589.10;2227.20;;;;;;5096603;28;20366;-56
2021/07/20 04:24:33;;;;;;;14.93;10.95;;;589.10;2227.20;;;;;;5094929;28;20354;-55
2021/07/20 04:27:03;;;;;;;14.32;11.13;;;589.10;2227.20;;;;;;5096149;28;20052;-56
2021/07/20 04:29:30;;;;;;;14.98;11.07;;;589.10;2201.60;;;;;;5096216;28;20024;-56
2021/07/20 04:32:01;;;;;;;12.20;10.90;;;589.10;2227.20;;;;;;5096073;28;20031;-56
2021/07/20 04:34:27;;;;;;;15.85;11.43;;;589.10;2201.60;;;;;;5096456;28;20419;-56
2021/07/20 04:36:54;;;;;;;12.02;10.80;;;589.10;2227.20;;;;;;5096231;28;20032;-55
2021/07/20 04:39:20;;;;;;;14.52;11.30;;;589.00;2227.20;;;;;;5096051;28;20028;-56
2021/07/20 04:41:46;;;;;;;12.13;10.82;;;589.10;2201.60;;;;;;5096249;28;20032;-56
2021/07/20 04:44:14;;;;;;;12.60;10.55;;;589.10;2201.60;;;;;;5095837;28;20415;-56
2021/07/20 04:46:44;;;;;;;16.00;11.23;;;589.10;2201.60;;;;;;5095887;28;20022;-56
2021/07/20 04:49:09;;;;;;;15.18;10.80;;;589.10;2201.60;;;;;;5095796;28;20104;-56
2021/07/20 04:51:38;;;;;;;13.27;10.32;;;589.10;2201.60;;;;;;5096236;28;20110;-56
2021/07/20 04:54:04;;;;;;;11.75;10.65;;;589.20;2201.60;;;;;;5095730;28;20511;-56
2021/07/20 04:56:31;;;;;;;17.88;10.35;;;589.20;2201.60;;;;;;5095706;28;20028;-56
2021/07/20 04:58:57;;;;;;;16.95;11.20;;;589.30;2201.60;;;;;;5095587;28;20020;-57
2021/07/20 05:01:24;;;;;;;12.65;11.13;;;589.30;2201.60;;;;;;5095765;28;20020;-56
2021/07/20 05:03:51;;;;;;;15.18;11.10;;;589.20;2201.60;;;;;;5094305;28;20024;-55
2021/07/20 05:06:19;;;;;;;19.13;12.05;;;589.20;2201.60;;;;;;5095464;28;20099;-56
2021/07/20 05:08:46;;;;;;;17.25;11.48;;;589.30;2201.60;;;;;;5095288;28;20476;-68
2021/07/20 05:11:12;;;;;;;14.43;11.52;;;589.20;2227.20;;;;;;5095301;28;20024;-56
2021/07/20 05:13:39;;;;;;;13.88;11.20;;;589.30;2227.20;;;;;;5095354;28;20115;-57
2021/07/20 05:16:06;;;;;;;13.98;12.55;;;589.30;2201.60;;;;;;5095433;28;20377;-56
2021/07/20 05:18:35;;;;;;;16.88;12.75;;;589.30;2227.20;;;;;;5095084;28;20110;-56
2021/07/20 05:21:02;;;;;;;16.52;12.70;;;589.30;2227.20;;;;;;5095364;28;20482;-55
2021/07/20 05:23:29;;;;;;;15.85;12.32;;;589.30;2227.20;;;;;;5095283;28;20031;-57
2021/07/20 05:25:59;;;;;;;13.90;12.38;;;589.30;2227.20;;;;;;5094928;28;20430;-69
2021/07/20 05:28:27;;;;;;;15.98;12.30;;;589.30;2227.20;;;;;;5094767;28;20097;-56
2021/07/20 05:30:58;;;;;;;18.20;12.35;;;589.40;2201.60;;;;;;5094734;28;20024;-69
2021/07/20 05:33:26;;;;;;;16.30;12.73;;;589.40;2201.60;;;;;;5094795;28;20163;-58
2021/07/20 05:35:58;;;;;;;17.77;12.05;;;589.40;2201.60;;;;;;5093468;28;20071;-56
2021/07/20 05:38:25;;;;;;;14.45;12.40;;;589.40;2201.60;;;;;;5094720;28;20024;-67
2021/07/20 05:40:54;;;;;;;14.43;12.07;;;589.50;2201.60;;;;;;5093350;28;20081;-58
2021/07/20 05:43:21;;;;;;;15.70;12.40;;;589.50;2227.20;;;;;;5094656;28;20107;-67
2021/07/20 05:45:48;;;;;;;15.82;12.57;;;589.50;2201.60;;;;;;5094467;28;20028;-68
2021/07/20 05:48:21;;;;;;;13.45;12.13;;;589.50;2201.60;;;;;;5094511;28;20052;-67
2021/07/20 05:50:52;;;;;;;16.83;12.38;;;589.60;2201.60;;;;;;5093383;28;20027;-56
2021/07/20 05:53:25;;;;;;;18.23;12.02;;;589.60;2201.60;;;;;;5094746;28;20455;-56
2021/07/20 05:55:52;;;;;;;14.43;12.93;;;589.60;2201.60;;;;;;5094397;28;20024;-56
2021/07/20 05:58:20;;;;;;;14.60;12.38;;;589.70;2201.60;;;;;;5094320;28;20058;-67
2021/07/20 06:00:47;;;;;;;14.45;12.85;;;614.40;2176.00;;;;;;5094806;28;20472;-56
2021/07/20 06:03:15;;;;;;;16.20;12.27;;;614.40;2176.00;;;;;;5094513;28;20028;-56
2021/07/20 06:05:47;;;;;;;15.75;12.57;;;614.40;2176.00;;;;;;5093576;28;20073;-56
2021/07/20 06:08:18;;;;;;;16.20;11.68;;;614.40;2176.00;;;;;;5094431;28;20024;-56
2021/07/20 06:10:51;;;;;;;18.75;12.57;;;614.50;2176.00;;;;;;5094025;28;20138;-68
2021/07/20 06:13:17;;;;;;;14.50;11.93;;;614.50;2176.00;;;;;;5094035;28;20032;-56
2021/07/20 06:15:47;;;;;;;13.32;11.10;;;614.50;2150.40;;;;;;5094012;28;20020;-56
2021/07/20 06:18:14;;;;;;;16.58;10.88;;;614.50;2150.40;;;;;;5094029;28;20032;-68
2021/07/20 06:20:50;;;;;;;15.95;11.07;;;614.50;2150.40;;;;;;5093907;28;20020;-68
2021/07/20 06:23:16;;;;;;;14.45;10.38;;;614.60;2124.80;;;;;;5093981;28;20085;-56
2021/07/20 06:25:43;;;;;;;19.77;11.25;;;614.60;2124.80;;;;;;5094084;28;20357;-56
2021/07/20 06:28:10;;;;;;;16.25;11.00;;;614.70;2099.20;;;;;;5093622;28;20055;-56
2021/07/20 06:30:39;;;;;;;14.35;10.52;;;614.80;2099.20;;;;;;5093679;28;20028;-59
2021/07/20 06:33:07;;;;;;;12.30;10.50;;;614.80;2099.20;;;;;;5093410;28;20502;-56
2021/07/20 06:35:33;;;;;;;17.13;10.63;;;614.80;2073.60;;;;;;5094022;28;20093;-56
2021/07/20 06:38:00;;;;;;;12.85;10.10;;;614.90;2073.60;;;;;;5093727;28;20028;-56
2021/07/20 06:40:26;;;;;;;15.95;11.23;;;614.90;2073.60;;;;;;5093663;28;20024;-56
2021/07/20 06:42:55;;;;;;;14.07;10.00;;;614.90;2048.00;;;;;;5093625;28;20016;-56
2021/07/20 06:45:22;;;;;;;11.95;10.38;;;614.90;2048.00;;;;;;5092339;28;20024;-69
2021/07/20 06:47:50;;;;;;;12.30;10.82;;;615.00;2073.60;;;;;;5093585;28;20066;-68
2021/07/20 06:50:18;;;;;;;15.23;11.35;;;615.00;2073.60;;;;;;5093810;28;20024;-57
2021/07/20 06:52:48;;;;;;;15.07;11.50;;;615.00;2073.60;;;;;;5093538;28;20458;-69
2021/07/20 06:55:15;;;;;;;14.68;10.98;;;615.10;2073.60;;;;;;5093596;28;20017;-56
2021/07/20 06:57:44;;;;;;;15.82;10.60;;;615.10;2048.00;;;;;;5093373;28;20028;-60
2021/07/20 07:00:11;;;;;;;16.25;10.82;;;615.10;2048.00;;;;;;5093546;28;20023;-68
2021/07/20 07:02:41;;;;;;;13.88;10.15;;;615.20;2048.00;;;;;;5092063;28;20059;-60
2021/07/20 07:05:13;;;;;;;18.50;11.05;;;615.30;2022.40;;;;;;5092111;28;20418;-59
2021/07/20 07:07:42;;;;;;;15.80;10.60;;;640.00;2022.40;;;;;;5093585;28;20016;-56
2021/07/20 07:10:09;;;;;;;12.35;10.15;;;640.00;1996.80;;;;;;5093297;28;20044;-56
2021/07/20 07:12:37;;;;;;;19.08;10.43;;;640.10;2022.40;;;;;;5093486;28;20109;-68
2021/07/20 07:15:07;;;;;;;13.98;9.85;;;640.30;1996.80;;;;;;5093204;28;20020;-69
2021/07/20 07:17:34;;;;;;;19.23;10.10;;;640.50;1920.00;;;;;;5093201;28;20027;-56
2021/07/20 07:20:03;;;;;;;18.98;10.35;;;640.50;1894.40;;;;;;5093210;28;20016;-69
2021/07/20 07:22:30;;;;;;;13.57;9.73;;;640.50;1868.80;;;;;;5093049;28;20063;-56
2021/07/20 07:24:57;;;;;;;16.02;9.95;;;640.60;1894.40;;;;;;5093187;28;20024;-56
2021/07/20 07:27:25;;;;;;;18.73;10.57;;;640.70;1894.40;;;;;;5093329;28;20048;-69
2021/07/20 07:29:52;;;;;;;16.85;10.43;;;640.80;1894.40;;;;;;5093165;28;20113;-56
2021/07/20 07:32:20;;;;;;;15.55;10.30;;;640.80;1868.80;;;;;;5093350;28;20422;-65
2021/07/20 07:34:46;;;;;;;19.17;9.43;;;640.70;1868.80;;;;;;5093327;28;20464;-69
2021/07/20 07:37:16;;;;;;;12.02;9.95;;;640.70;1868.80;;;;;;5093117;28;20024;-56
2021/07/20 07:39:44;;;;;;;13.40;10.45;;;640.60;1894.40;;;;;;5093355;28;20012;-56
2021/07/20 07:42:12;;;;;;;16.27;10.73;;;640.50;1868.80;;;;;;5093299;28;20060;-70
2021/07/20 07:44:40;;;;;;;13.60;10.57;;;640.40;1868.80;;;;;;5096681;28;20491;-56
2021/07/20 07:47:08;;;;;;;14.52;10.50;;;640.30;1920.00;;;;;;5094903;28;20365;-56
2021/07/20 07:49:35;;;;;;;16.42;10.73;;;640.30;1894.40;;;;;;5095298;28;20021;-60
2021/07/20 07:52:02;;;;;;;13.18;11.18;;;640.20;1868.80;;;;;;5095939;28;20036;-56
2021/07/20 07:54:28;;;;;;;14.25;10.50;;;640.20;1894.40;;;;;;5096640;28;20020;-56
2021/07/20 07:56:54;;;;;;;16.60;11.10;;;640.20;1920.00;;;;;;5096672;28;20474;-63
2021/07/20 07:59:23;;;;;;;18.48;11.15;;;640.20;1894.40;;;;;;5095721;28;20013;-66
2021/07/20 08:01:52;;;;;;;11.90;10.35;;;640.20;1894.40;;;;;;5095923;28;20059;-70
2021/07/20 08:04:25;;;;;;;18.20;11.68;;;640.20;1868.80;;;;;;5095192;28;20020;-58
2021/07/20 08:06:52;;;;;;;18.50;10.73;;;640.20;1894.40;;;;;;5095637;28;20024;-69
2021/07/20 08:09:20;;;;;;;12.23;10.52;;;640.20;1868.80;;;;;;5095696;28;20103;-69
2021/07/20 08:11:47;;;;;;;16.30;10.32;;;640.20;1817.60;;;;;;5095842;28;20472;-68
2021/07/20 08:14:14;;;;;;;14.63;11.00;;;640.30;1868.80;;;;;;5093431;28;20020;-68
2021/07/20 08:16:44;;;;;;;18.85;10.85;;;640.20;1817.60;;;;;;5095225;28;20036;-68
2021/07/20 08:19:11;;;;;;;13.88;10.60;;;640.30;1868.80;;;;;;5096057;28;20031;-55
2021/07/20 08:21:38;;;;;;;13.38;10.63;;;640.30;1868.80;;;;;;5096139;28;20069;-66
2021/07/20 08:24:05;;;;;;;14.27;10.68;;;640.30;1868.80;;;;;;5096245;28;20016;-55
2021/07/20 08:26:34;;;;;;;13.60;9.95;;;640.30;1868.80;;;;;;5095867;28;20100;-60
2021/07/20 08:29:14;;;;;;;18.67;10.82;;;640.50;1868.80;;;;;;5096341;28;20107;-59
2021/07/20 08:31:44;;;;;;;15.45;10.55;;;640.50;1868.80;;;;;;5096192;28;20024;-67
2021/07/20 08:34:13;;;;;;;14.90;11.35;;;640.60;1868.80;;;;;;5095916;28;20024;-56
2021/07/20 08:36:41;;;;;;;14.20;10.70;;;640.60;1868.80;;;;;;5095889;28;20020;-55
2021/07/20 08:39:10;;;;;;;14.45;10.07;;;640.60;1868.80;;;;;;5095888;28;20026;-58
2021/07/20 08:41:57;;;;;;;16.20;11.35;;;640.70;1843.20;;;;;;5095954;28;20031;-56
2021/07/20 08:45:00;;;;;;;16.15;10.60;;;640.70;1868.80;;;;;;5095974;28;20024;-56
2021/07/20 08:47:32;;;;;;;13.27;9.85;;;640.70;1843.20;;;;;;5095686;28;20023;-69
2021/07/20 08:49:57;;;;;;;14.68;9.40;;;640.80;1868.80;;;;;;5095518;28;20024;-56
2021/07/20 08:52:55;;;;;;;16.15;10.05;;;640.80;1843.20;;;;;;5095514;28;20059;-69
2021/07/20 08:55:24;;;;;;;16.25;10.68;;;665.60;1868.80;;;;;;5094573;28;20055;-55
2021/07/20 08:57:52;;;;;;;17.00;11.23;;;665.60;1894.40;;;;;;5095467;28;20385;-57
2021/07/20 09:00:21;;;;;;;17.52;10.70;;;665.60;1894.40;;;;;;5095377;28;20032;-70
2021/07/20 09:02:56;;;;;;;14.32;10.57;;;665.60;1868.80;;;;;;5095403;28;20024;-55
2021/07/20 09:05:45;;;;;;;14.90;9.82;;;665.60;1843.20;;;;;;5095997;28;20056;-55
2021/07/20 09:08:16;;;;;;;13.77;10.63;;;665.60;1868.80;;;;;;5085694;28;20039;-68
2021/07/20 09:11:00;;;;;;;13.70;10.20;;;665.60;1868.80;;;;;;5095182;28;20460;-64
2021/07/20 09:13:33;;;;;;;13.05;10.50;;;665.60;1868.80;;;;;;5095823;28;20028;-55
2021/07/20 09:16:30;;;;;;;16.73;11.38;;;665.60;1843.20;;;;;;5095183;28;20016;-65
2021/07/20 09:19:22;;;;;;;16.92;11.18;;;665.60;1868.80;;;;;;5095073;28;20065;-55
2021/07/20 09:21:51;;;;;;;15.77;10.73;;;665.60;1868.80;;;;;;5086754;28;20024;-55
2021/07/20 09:24:28;;;;;;;16.50;10.68;;;665.60;1894.40;;;;;;5093719;28;20028;-56
2021/07/20 09:27:03;;;;;;;13.88;9.90;;;665.60;1868.80;;;;;;5094751;28;20598;-56
2021/07/20 09:29:31;;;;;;;15.32;10.50;;;665.60;1868.80;;;;;;5094993;28;20476;-55
2021/07/20 09:32:04;;;;;;;15.10;10.45;;;665.60;1868.80;;;;;;5094789;28;20053;-55
2021/07/20 09:34:48;;;;;;;16.00;11.00;;;665.70;1868.80;;;;;;5094924;28;20024;-55
2021/07/20 09:37:26;;;;;;;16.45;10.27;;;665.70;1766.40;;;;;;5094761;28;20031;-68
2021/07/20 09:40:17;;;;;;;18.00;10.68;;;665.80;1817.60;;;;;;5095092;28;20016;-56
2021/07/20 09:43:07;;;;;;;13.82;9.85;;;665.80;1740.80;;;;;;5094692;28;20012;-55
2021/07/20 09:45:45;;;;;;;19.33;11.02;;;665.80;1740.80;;;;;;5094497;28;20012;-68
2021/07/20 09:48:29;;;;;;;19.80;11.02;;;665.90;1740.80;;;;;;5094511;28;20039;-69
2021/07/20 09:51:01;;;;;;;17.45;10.52;;;665.90;1740.80;;;;;;5093763;28;20020;-59
2021/07/20 09:53:33;;;;;;;16.00;9.70;;;665.90;1715.20;;;;;;5092435;28;20411;-63
2021/07/20 09:56:26;;;;;;;16.17;10.30;;;665.90;1766.40;;;;;;5094296;28;20027;-68
2021/07/20 09:59:06;;;;;;;14.52;10.40;;;665.90;1689.60;;;;;;5093742;28;20090;-67
2021/07/20 10:01:48;;;;;;;20.83;10.82;;;666.00;1715.20;;;;;;5093612;28;20372;-55
2021/07/20 10:04:29;;;;;;;16.27;10.77;;;666.10;1689.60;;;;;;5094622;28;20102;-67
2021/07/20 10:07:30;;;;;;;13.73;10.98;;;666.10;1715.20;;;;;;5094119;28;20023;-57
2021/07/20 10:10:13;;;;;;;15.07;10.98;;;666.00;1689.60;;;;;;5094246;28;20016;-55
2021/07/20 10:13:02;;;;;;;15.10;10.57;;;666.10;1715.20;;;;;;5094085;28;20054;-65
2021/07/20 10:15:55;;;;;;;13.48;10.60;;;666.10;1740.80;;;;;;5094021;28;20019;-64
2021/07/20 10:18:44;;;;;;;19.02;11.02;;;666.10;1766.40;;;;;;5093835;28;20024;-57
2021/07/20 10:21:17;;;;;;;17.08;11.82;;;666.10;1766.40;;;;;;5093445;28;20027;-55
2021/07/20 10:23:55;;;;;;;14.43;11.68;;;666.10;1792.00;;;;;;5093801;28;20426;-69
2021/07/20 10:26:38;;;;;;;15.52;11.02;;;666.10;1766.40;;;;;;5093909;28;20536;-61
2021/07/20 10:29:39;;;;;;;17.38;10.95;;;666.10;1792.00;;;;;;5093601;28;20020;-56
2021/07/20 10:32:07;;;;;;;15.77;10.82;;;666.10;1766.40;;;;;;5085226;28;20493;-55
2021/07/20 10:34:36;;;;;;;14.98;10.40;;;666.20;1766.40;;;;;;5093705;28;20511;-69
2021/07/20 10:37:20;;;;;;;15.20;10.85;;;666.20;1740.80;;;;;;5093438;28;20584;-55
2021/07/20 10:40:09;;;;;;;13.05;9.68;;;666.30;1740.80;;;;;;5093572;28;20030;-67
2021/07/20 10:42:56;;;;;;;17.73;11.15;;;666.30;1740.80;;;;;;5093047;28;20499;-67
2021/07/20 10:45:24;;;;;;;20.25;11.60;;;666.30;1766.40;;;;;;5093503;28;20051;-67
2021/07/20 10:48:11;;;;;;;18.20;11.18;;;666.30;1766.40;;;;;;5093410;28;20073;-69
2021/07/20 10:51:03;;;;;;;15.55;10.98;;;666.40;1740.80;;;;;;5093195;28;20055;-64
2021/07/20 10:53:50;;;;;;;14.73;10.80;;;666.40;1715.20;;;;;;5093496;28;20043;-69
2021/07/20 10:56:23;;;;;;;17.15;10.95;;;666.40;1715.20;;;;;;5092929;28;20025;-63
2021/07/20 10:59:12;;;;;;;13.88;10.23;;;666.40;1715.20;;;;;;5093629;28;20032;-56
2021/07/20 11:02:04;;;;;;;19.55;12.18;;;666.50;1715.20;;;;;;5093373;28;20016;-57
2021/07/20 11:04:46;;;;;;;16.02;10.95;;;691.20;1689.60;;;;;;5092204;28;20086;-55
2021/07/20 11:07:19;;;;;;;19.38;11.85;;;691.30;1715.20;;;;;;5094184;28;20032;-55
2021/07/20 11:09:47;;;;;;;17.48;10.85;;;691.30;1715.20;;;;;;5093469;28;20028;-55
2021/07/20 11:12:14;;;;;;;23.23;10.55;;;691.30;1664.00;;;;;;5092830;28;20035;-55
2021/07/20 11:14:46;;;;;;;13.98;9.98;;;691.30;1638.40;;;;;;5093353;28;20028;-55
2021/07/20 11:17:16;;;;;;;20.90;11.18;;;691.40;1664.00;;;;;;5093302;28;20028;-70
2021/07/20 11:19:44;;;;;;;16.48;10.52;;;691.40;1689.60;;;;;;5097400;28;20035;-55
2021/07/20 11:22:12;;;;;;;32.95;12.57;;;691.40;1638.40;;;;;;5097118;28;20024;-55
2021/07/20 11:24:39;;;;;;;18.08;10.52;;;691.40;1638.40;;;;;;5096572;28;20016;-56
2021/07/20 11:27:05;;;;;;;30.98;12.15;;;691.40;1638.40;;;;;;5095370;28;20048;-56
2021/07/20 11:29:32;;;;;;;15.93;10.85;;;691.50;1689.60;;;;;;5096657;28;20030;-68
2021/07/20 11:32:04;;;;;;;31.50;11.68;;;691.40;1638.40;;;;;;5097264;28;20028;-55
2021/07/20 11:34:35;;;;;;;18.48;10.43;;;691.40;1638.40;;;;;;5097369;28;20077;-54
2021/07/20 11:37:15;;;;;;;23.80;11.70;;;691.50;1612.80;;;;;;5097370;28;20452;-54
2021/07/20 11:39:48;;;;;;;21.95;10.75;;;691.60;1638.40;;;;;;5096337;28;20516;-55
2021/07/20 11:42:35;;;;;;;32.78;13.25;;;691.50;1638.40;;;;;;5095773;28;20070;-55
2021/07/20 11:45:09;;;;;;;29.30;11.88;;;691.50;1638.40;;;;;;5095827;28;20024;-68
2021/07/20 11:48:08;;;;;;;19.05;10.55;;;691.60;1689.60;;;;;;5095304;28;20028;-55
2021/07/20 11:51:00;;;;;;;20.05;11.52;;;691.70;1689.60;;;;;;4996543;28;20031;-55
2021/07/20 11:53:46;;;;;;;21.02;11.40;;;691.70;1664.00;;;;;;5013704;28;20553;-56
2021/07/20 11:56:18;;;;;;;19.63;10.52;;;691.70;1638.40;;;;;;5015174;28;20534;-57
2021/07/20 11:59:07;;;;;;;31.02;12.10;;;691.70;1638.40;;;;;;5014850;28;20040;-56
2021/07/20 12:01:48;;;;;;;17.63;9.75;;;691.70;1664.00;;;;;;5015087;28;20066;-57
2021/07/20 12:05:04;;;;;;;17.58;10.88;;;691.70;1664.00;;;;;;4995036;28;20109;-56
2021/07/20 12:07:52;;;;;;;21.08;10.45;;;691.70;1612.80;;;;;;4973587;28;20038;-57
2021/07/20 12:10:45;;;;;;;18.90;10.40;;;691.80;1664.00;;;;;;4973756;28;20047;-58
2021/07/20 12:13:13;;;;;;;19.70;10.50;;;691.80;1664.00;;;;;;4973604;28;20077;-66
2021/07/20 12:15:40;;;;;;;18.40;10.32;;;691.70;1612.80;;;;;;4974192;28;20038;-61
2021/07/20 12:18:06;;;;;;;18.80;9.55;;;691.80;1587.20;;;;;;4974421;28;20065;-67
2021/07/20 12:20:34;;;;;;;17.23;10.43;;;691.90;1587.20;;;;;;4974351;28;20484;-68
2021/07/20 12:23:00;;;;;;;15.50;10.02;;;691.90;1612.80;;;;;;4975182;28;20037;-57
2021/07/20 12:25:27;;;;;;;18.40;10.10;;;691.90;1612.80;;;;;;4974302;28;20125;-65